TCBA weather

Tucabia Oval Helicopter Landing Site
Tucabia, New South Wales, Australia

Public forecast

Using degrees Celsius for public forecast. Weather courtesy of forecast.io.

METAR (pilot weather report)

Closest report is Grafton Airport, 7.2 nm (13.2 km) SSW. Retrieved 2019/02/19 01:00 UTC (14 minutes ago):

YGFN 190100Z AUTO 03007KT 9999 // NCD 31/17 Q1007

TAF (pilot weather forecast)

Forecast is more than 12 hours old.

Closest forecast is Gold Coast Airport, 92.2 nm (170.8 km) NNE. Retrieved 2019/02/18 00:00 UTC (1 day ago):

TAF YBCG 182316Z 1900/1924 05010KT CAVOK FM190900 07006KT 9999 FEW020 FM191200 21005KT 9999 SCT020 FM192200 16012KT 9999 FEW025 BKN035